Terminal Aerodrome Forecast
Issued by NWS

Home | Current Version | Previous Version | Text Only | Print | Product List | Glossary On
Versions: 1 2 3 4 5 6 7 8 9 10 11 12 13 14 15 16 17 18 19 20 21 22
000
FTUS43 KDTX 180538
TAFYIP
TAF
KYIP 180538Z 1806/1906 20012KT 4SM RA BR BKN022 OVC040
      WS015/22040KT
     FM180900 19008KT 5SM -RA BR OVC010
     FM181200 17006KT 2SM -RA BR OVC005
     FM181700 18010KT 3SM SHRA BR BKN006 OVC018
     FM182300 32015G24KT P6SM -SHRA SCT010 OVC022
     FM190200 30024G36KT P6SM -SHRA BKN028 OVC050=

USA.gov is the U.S. government's official web portal to all federal, state and local government web resources and services.